Time;durP1;ratioP1;P1;durP2;ratioP2;P2;SDS_P1;SDS_P2;PMS_P1;PMS_P2;Temp;Humidity;BMP_temperature;BMP_pressure;BME280_temperature;BME280_humidity;BME280_pressure;Samples;Min_cycle;Max_cycle;Signal;HPM_P1;HPM_P2
2021/05/16 00:00:59;;;;;;;0.30;0.25;;;14.00;67.70;;;;;;5007695;28;20472;-85
2021/05/16 00:03:25;;;;;;;0.00;0.00;;;14.00;67.70;;;;;;5012669;28;20034;-84
2021/05/16 00:05:51;;;;;;;0.20;0.10;;;14.00;67.70;;;;;;5005910;28;20054;-86
2021/05/16 00:08:17;;;;;;;1.02;0.45;;;14.00;67.80;;;;;;5010020;28;20022;-86
2021/05/16 00:10:43;;;;;;;0.20;0.00;;;14.00;67.80;;;;;;5010728;28;20038;-87
2021/05/16 00:13:10;;;;;;;1.33;0.17;;;14.00;67.80;;;;;;5009443;28;20057;-86
2021/05/16 00:15:37;;;;;;;0.15;0.00;;;14.00;67.80;;;;;;4993740;28;20480;-85
2021/05/16 00:18:03;;;;;;;0.00;0.00;;;14.00;67.90;;;;;;5009682;28;20468;-86
2021/05/16 00:20:30;;;;;;;0.10;0.00;;;13.90;68.00;;;;;;5009400;28;20045;-86
2021/05/16 00:22:56;;;;;;;0.00;0.00;;;13.90;68.00;;;;;;5008620;28;20033;-86
2021/05/16 00:25:22;;;;;;;8.15;0.10;;;13.90;68.10;;;;;;5010439;28;20036;-86
2021/05/16 00:27:48;;;;;;;0.40;0.00;;;13.90;68.10;;;;;;5010923;28;20033;-86
2021/05/16 00:30:16;;;;;;;0.00;0.00;;;13.90;68.20;;;;;;5015397;28;20026;-86
2021/05/16 00:32:43;;;;;;;0.65;0.30;;;13.90;68.30;;;;;;5007304;28;20026;-85
2021/05/16 00:35:10;;;;;;;0.10;0.00;;;13.90;68.30;;;;;;5008992;28;20068;-86
2021/05/16 00:37:36;;;;;;;0.00;0.00;;;13.90;68.30;;;;;;5010978;28;20395;-86
2021/05/16 00:40:03;;;;;;;0.00;0.00;;;13.90;68.30;;;;;;5007756;28;20033;-86
2021/05/16 00:42:30;;;;;;;0.65;0.05;;;13.90;68.40;;;;;;5010623;28;20526;-86
2021/05/16 00:45:06;;;;;;;0.43;0.30;;;13.90;68.50;;;;;;5021920;28;20037;-85
2021/05/16 00:47:32;;;;;;;1.90;0.03;;;13.90;68.60;;;;;;5009292;28;20045;-86
2021/05/16 00:49:58;;;;;;;1.75;0.63;;;13.90;68.50;;;;;;4991584;28;20038;-86
2021/05/16 00:52:25;;;;;;;6.38;0.22;;;13.90;68.50;;;;;;4994144;28;20058;-86
2021/05/16 00:54:52;;;;;;;0.93;0.35;;;13.90;68.60;;;;;;5011910;28;20478;-87
2021/05/16 00:57:19;;;;;;;0.10;0.10;;;13.90;68.70;;;;;;5039531;28;20050;-86
2021/05/16 00:59:45;;;;;;;3.42;0.15;;;13.90;68.70;;;;;;5009236;28;20045;-86
2021/05/16 01:02:11;;;;;;;0.00;0.00;;;13.90;68.70;;;;;;5006397;28;20033;-86
2021/05/16 01:04:38;;;;;;;0.00;0.00;;;13.90;68.80;;;;;;4991460;28;20034;-86
2021/05/16 01:07:04;;;;;;;0.00;0.00;;;13.90;68.80;;;;;;5008703;28;20057;-86
2021/05/16 01:09:30;;;;;;;0.10;0.00;;;13.90;68.90;;;;;;4993814;28;20041;-87
2021/05/16 01:11:58;;;;;;;0.20;0.00;;;13.90;68.80;;;;;;5005415;28;20429;-86
2021/05/16 01:14:41;;;;;;;0.10;0.05;;;13.90;68.80;;;;;;5008595;28;20038;-87
2021/05/16 01:17:07;;;;;;;1.30;0.00;;;13.90;68.90;;;;;;5006718;28;20038;-85
2021/05/16 01:19:33;;;;;;;0.30;0.00;;;13.90;68.90;;;;;;5007821;28;20042;-87
2021/05/16 01:22:00;;;;;;;0.30;0.05;;;13.90;69.00;;;;;;5009060;28;20034;-86
2021/05/16 01:24:28;;;;;;;1.65;0.20;;;13.90;69.00;;;;;;4974717;28;20054;-86
2021/05/16 01:26:54;;;;;;;0.00;0.00;;;13.90;69.00;;;;;;5030326;28;20069;-86
2021/05/16 01:29:21;;;;;;;0.20;0.10;;;13.90;69.10;;;;;;5007228;28;20034;-86
2021/05/16 01:31:48;;;;;;;0.95;0.10;;;13.90;69.20;;;;;;5013627;28;20331;-86
2021/05/16 01:34:14;;;;;;;0.00;0.00;;;13.90;69.20;;;;;;5013142;28;20045;-86
2021/05/16 01:36:40;;;;;;;0.00;0.00;;;13.90;69.30;;;;;;4980054;28;20048;-86
2021/05/16 01:39:11;;;;;;;7.97;0.08;;;13.80;69.30;;;;;;5010109;28;20045;-87
2021/05/16 01:41:37;;;;;;;0.00;0.00;;;13.80;69.40;;;;;;5011277;28;20029;-86
2021/05/16 01:44:03;;;;;;;1.17;0.10;;;13.80;69.40;;;;;;5012577;28;20490;-85
2021/05/16 01:46:30;;;;;;;1.02;0.22;;;13.80;69.50;;;;;;5030019;28;20045;-84
2021/05/16 01:48:56;;;;;;;0.00;0.00;;;13.80;69.50;;;;;;5038173;28;20019;-83
2021/05/16 01:51:22;;;;;;;0.20;0.05;;;13.80;69.60;;;;;;5024775;28;20060;-86
2021/05/16 01:53:48;;;;;;;0.00;0.00;;;13.80;69.60;;;;;;5012287;28;20054;-86
2021/05/16 01:56:20;;;;;;;0.00;0.00;;;13.80;69.60;;;;;;5011890;28;20038;-84
2021/05/16 01:58:47;;;;;;;4.57;0.20;;;13.80;69.80;;;;;;5007498;28;20029;-86
2021/05/16 02:01:13;;;;;;;0.25;0.03;;;13.80;69.80;;;;;;5011232;28;20033;-86
2021/05/16 02:03:40;;;;;;;0.10;0.00;;;13.70;69.80;;;;;;5006326;28;20387;-87
2021/05/16 02:06:08;;;;;;;4.97;0.20;;;13.70;69.90;;;;;;5005870;28;20046;-85
2021/05/16 02:08:34;;;;;;;0.35;0.00;;;13.70;69.90;;;;;;5011137;28;20030;-86
2021/05/16 02:11:02;;;;;;;0.00;0.00;;;13.70;70.00;;;;;;5011897;28;20030;-86
2021/05/16 02:13:28;;;;;;;0.00;0.00;;;13.70;70.10;;;;;;5011150;28;20037;-85
2021/05/16 02:15:54;;;;;;;0.00;0.00;;;13.60;70.00;;;;;;5034932;28;20034;-86
2021/05/16 02:18:20;;;;;;;0.32;0.00;;;13.60;70.10;;;;;;5012585;28;20522;-87
2021/05/16 02:20:47;;;;;;;0.20;0.10;;;13.60;70.10;;;;;;5027842;28;20034;-86
2021/05/16 02:23:13;;;;;;;0.00;0.00;;;13.60;70.20;;;;;;5040442;28;20034;-84
2021/05/16 02:25:39;;;;;;;2.30;0.30;;;13.60;70.30;;;;;;5002291;28;20045;-86
2021/05/16 02:28:06;;;;;;;0.98;0.38;;;13.60;70.30;;;;;;5027740;28;20068;-86
2021/05/16 02:30:32;;;;;;;3.22;0.10;;;13.50;70.30;;;;;;5027155;28;20372;-86
2021/05/16 02:32:59;;;;;;;0.75;0.03;;;13.50;70.40;;;;;;5028380;28;20037;-87
2021/05/16 02:35:25;;;;;;;0.80;0.05;;;13.50;70.40;;;;;;5005118;28;20031;-85
2021/05/16 02:37:51;;;;;;;0.10;0.00;;;13.50;71.30;;;;;;4993017;28;20025;-86
2021/05/16 02:40:17;;;;;;;0.00;0.00;;;13.50;70.60;;;;;;5010585;28;20029;-85
2021/05/16 02:42:43;;;;;;;0.00;0.00;;;13.50;70.60;;;;;;4995693;28;22442;-86
2021/05/16 02:45:10;;;;;;;0.98;0.22;;;13.50;70.70;;;;;;5024967;28;20034;-86
2021/05/16 02:47:36;;;;;;;0.22;0.03;;;13.40;70.60;;;;;;5012351;28;20047;-86
2021/05/16 02:50:03;;;;;;;1.38;0.90;;;13.40;70.70;;;;;;5012222;28;20399;-86
2021/05/16 02:52:29;;;;;;;0.00;0.00;;;13.40;70.80;;;;;;4992958;28;20427;-85
2021/05/16 02:54:55;;;;;;;0.00;0.00;;;13.40;70.80;;;;;;5011373;28;20030;-87
2021/05/16 02:57:22;;;;;;;0.80;0.20;;;13.40;70.90;;;;;;5001649;28;20034;-83
2021/05/16 02:59:48;;;;;;;0.22;0.10;;;13.40;70.90;;;;;;5035770;28;20028;-84
2021/05/16 03:02:15;;;;;;;0.00;0.00;;;13.30;70.90;;;;;;5034659;28;20048;-86
2021/05/16 03:04:42;;;;;;;0.00;0.00;;;13.40;71.00;;;;;;5012207;28;20467;-85
2021/05/16 03:07:08;;;;;;;1.65;0.13;;;13.40;71.00;;;;;;5011218;28;20038;-86
2021/05/16 03:09:35;;;;;;;0.50;0.00;;;13.30;71.00;;;;;;5011774;28;20030;-87
2021/05/16 03:12:02;;;;;;;7.13;0.25;;;13.40;71.00;;;;;;5024533;28;20045;-87
2021/05/16 03:14:28;;;;;;;0.08;0.00;;;13.40;71.10;;;;;;5011758;28;20025;-86
2021/05/16 03:16:55;;;;;;;0.00;0.00;;;13.30;71.00;;;;;;5010946;28;20037;-87
2021/05/16 03:19:21;;;;;;;0.45;0.20;;;13.30;71.10;;;;;;5011907;28;20034;-87
2021/05/16 03:21:47;;;;;;;0.03;0.00;;;13.40;71.10;;;;;;4994356;28;20403;-86
2021/05/16 03:24:13;;;;;;;0.00;0.00;;;13.40;71.10;;;;;;5024647;28;20038;-84
2021/05/16 03:26:41;;;;;;;0.00;0.00;;;13.40;71.10;;;;;;5010827;28;20399;-87
2021/05/16 03:29:08;;;;;;;0.30;0.05;;;13.40;71.20;;;;;;5011912;28;20427;-87
2021/05/16 03:31:34;;;;;;;2.83;0.25;;;13.40;71.20;;;;;;5011190;28;20034;-87
2021/05/16 03:34:01;;;;;;;0.00;0.00;;;13.40;71.20;;;;;;5010492;28;20093;-86
2021/05/16 03:36:27;;;;;;;0.20;0.13;;;13.40;71.20;;;;;;5013041;28;20038;-87
2021/05/16 03:38:53;;;;;;;0.00;0.00;;;13.40;71.20;;;;;;5000508;28;20042;-86
2021/05/16 03:41:19;;;;;;;0.35;0.08;;;13.40;71.20;;;;;;4993206;28;20034;-87
2021/05/16 03:43:46;;;;;;;0.00;0.00;;;13.40;71.30;;;;;;5010191;28;20407;-87
2021/05/16 03:46:12;;;;;;;0.15;0.00;;;13.40;71.30;;;;;;5010116;28;20049;-88
2021/05/16 03:48:38;;;;;;;0.00;0.00;;;13.40;71.50;;;;;;4990363;28;20046;-85
2021/05/16 03:51:05;;;;;;;0.22;0.00;;;13.30;71.40;;;;;;5018558;28;20479;-90
2021/05/16 03:53:31;;;;;;;0.03;0.00;;;13.40;71.50;;;;;;5006996;28;20407;-88
2021/05/16 03:55:57;;;;;;;0.00;0.00;;;13.30;71.60;;;;;;5023231;28;20026;-86
2021/05/16 03:58:23;;;;;;;0.40;0.00;;;13.30;71.60;;;;;;5002430;28;20037;-84
2021/05/16 04:00:49;;;;;;;0.28;0.00;;;13.30;71.70;;;;;;5009579;28;20098;-86
2021/05/16 04:03:16;;;;;;;0.00;0.00;;;13.30;71.80;;;;;;5039607;28;20030;-86
2021/05/16 04:05:42;;;;;;;0.70;0.43;;;13.30;71.80;;;;;;5009139;28;20037;-89
2021/05/16 04:08:08;;;;;;;0.10;0.00;;;13.30;71.80;;;;;;5010335;28;20503;-89
2021/05/16 04:10:34;;;;;;;0.20;0.00;;;13.30;71.80;;;;;;5018122;28;20030;-88
2021/05/16 04:13:00;;;;;;;0.10;0.00;;;13.30;71.90;;;;;;5010653;28;20056;-89
2021/05/16 04:15:26;;;;;;;0.30;0.20;;;13.30;71.90;;;;;;4994937;28;20033;-90
2021/05/16 04:17:52;;;;;;;0.10;0.00;;;13.20;71.90;;;;;;5014235;28;20034;-89
2021/05/16 04:20:18;;;;;;;0.03;0.03;;;13.20;71.90;;;;;;5005275;28;20488;-89
2021/05/16 04:22:44;;;;;;;0.10;0.00;;;13.20;72.00;;;;;;5009791;28;20045;-88
2021/05/16 04:25:11;;;;;;;0.00;0.00;;;13.20;72.00;;;;;;5009934;28;20032;-88
2021/05/16 04:27:37;;;;;;;0.10;0.08;;;13.20;72.10;;;;;;5011389;28;20034;-88
2021/05/16 04:30:04;;;;;;;1.98;0.40;;;13.20;72.10;;;;;;5025189;28;20090;-88
2021/05/16 04:32:30;;;;;;;0.10;0.00;;;13.20;72.20;;;;;;5009483;28;20034;-88
2021/05/16 04:34:56;;;;;;;0.15;0.00;;;13.20;72.20;;;;;;5008272;28;20022;-88
2021/05/16 04:37:22;;;;;;;1.50;0.10;;;13.20;72.10;;;;;;5010107;28;20041;-87
2021/05/16 04:39:48;;;;;;;0.10;0.00;;;13.20;72.10;;;;;;5010918;28;20026;-85
2021/05/16 04:42:15;;;;;;;0.08;0.00;;;13.20;72.10;;;;;;5012299;28;20026;-88
2021/05/16 04:44:41;;;;;;;0.10;0.00;;;13.30;72.20;;;;;;5009521;28;20029;-87
2021/05/16 04:47:08;;;;;;;0.10;0.00;;;13.30;72.10;;;;;;5009868;28;20065;-88
2021/05/16 04:49:35;;;;;;;1.08;0.20;;;13.30;72.10;;;;;;5009520;28;20029;-88
2021/05/16 04:52:01;;;;;;;0.05;0.00;;;13.30;72.00;;;;;;5009568;28;20041;-87
2021/05/16 04:54:27;;;;;;;1.23;0.10;;;13.40;72.10;;;;;;5010161;28;20040;-89
2021/05/16 04:56:53;;;;;;;0.20;0.00;;;13.40;72.10;;;;;;5012878;28;20387;-88
2021/05/16 04:59:19;;;;;;;0.10;0.00;;;13.40;72.10;;;;;;5008844;28;20033;-88
2021/05/16 05:01:45;;;;;;;0.52;0.20;;;13.40;72.10;;;;;;5008273;28;20487;-88
2021/05/16 05:04:11;;;;;;;0.73;0.28;;;13.40;72.00;;;;;;5012358;28;20030;-88
2021/05/16 05:06:37;;;;;;;0.00;0.00;;;13.50;72.10;;;;;;4997141;28;20030;-89
2021/05/16 05:09:07;;;;;;;0.13;0.00;;;13.50;72.00;;;;;;5032437;28;20415;-88
2021/05/16 05:11:33;;;;;;;0.00;0.00;;;13.60;72.00;;;;;;5009827;28;20033;-88
2021/05/16 05:14:00;;;;;;;0.40;0.10;;;13.60;72.00;;;;;;5013108;28;20018;-88
2021/05/16 05:16:26;;;;;;;0.35;0.15;;;13.60;72.00;;;;;;5014647;28;20034;-88
2021/05/16 05:18:52;;;;;;;2.28;0.35;;;13.70;72.10;;;;;;5035309;28;20027;-88
2021/05/16 05:21:18;;;;;;;0.00;0.00;;;13.70;72.00;;;;;;5037820;28;20036;-89
2021/05/16 05:23:44;;;;;;;0.25;0.10;;;13.80;72.10;;;;;;4994938;28;20502;-88
2021/05/16 05:26:10;;;;;;;1.20;0.17;;;13.80;72.00;;;;;;5006966;28;20030;-89
2021/05/16 05:28:36;;;;;;;0.00;0.00;;;13.80;72.10;;;;;;5013742;28;20030;-88
2021/05/16 05:31:03;;;;;;;0.00;0.00;;;13.80;72.10;;;;;;5010210;28;20034;-88
2021/05/16 05:33:29;;;;;;;0.00;0.00;;;13.80;72.10;;;;;;4997584;28;20038;-88
2021/05/16 05:35:55;;;;;;;0.45;0.00;;;13.90;72.20;;;;;;5014875;28;20030;-89
2021/05/16 05:38:22;;;;;;;0.20;0.08;;;14.10;72.00;;;;;;5012883;28;20030;-86
2021/05/16 05:40:48;;;;;;;0.55;0.13;;;14.40;71.70;;;;;;5012294;28;20045;-87
2021/05/16 05:43:14;;;;;;;0.00;0.00;;;14.60;71.20;;;;;;5012336;28;20491;-88
2021/05/16 05:45:40;;;;;;;3.47;0.10;;;14.90;70.90;;;;;;4995786;28;20041;-88
2021/05/16 05:48:06;;;;;;;1.38;0.10;;;15.00;70.70;;;;;;5042768;28;20407;-86
2021/05/16 05:50:32;;;;;;;0.30;0.00;;;15.10;70.70;;;;;;5011119;28;20033;-89
2021/05/16 05:53:02;;;;;;;1.85;0.10;;;15.10;70.70;;;;;;5012568;28;20054;-88
2021/05/16 05:55:32;;;;;;;4.47;0.13;;;15.10;70.80;;;;;;5010670;28;20033;-88
2021/05/16 05:57:58;;;;;;;0.10;0.00;;;15.00;70.90;;;;;;4996898;28;20056;-89
2021/05/16 06:00:28;;;;;;;0.25;0.15;;;15.00;71.10;;;;;;5013192;28;20037;-88
2021/05/16 06:02:58;;;;;;;0.08;0.00;;;15.00;71.30;;;;;;5012902;28;20022;-89
2021/05/16 06:05:27;;;;;;;3.63;0.10;;;14.90;71.40;;;;;;5012384;28;20030;-87
2021/05/16 06:07:54;;;;;;;0.20;0.00;;;14.90;71.50;;;;;;5012390;28;20037;-88
2021/05/16 06:10:20;;;;;;;2.60;0.17;;;14.90;71.60;;;;;;5012967;28;20038;-87
2021/05/16 06:12:46;;;;;;;5.40;0.15;;;14.90;71.50;;;;;;5011768;28;20522;-87
2021/05/16 06:15:13;;;;;;;0.25;0.08;;;14.90;71.60;;;;;;5028170;28;20034;-89
2021/05/16 06:17:39;;;;;;;0.32;0.00;;;14.90;71.60;;;;;;5009717;28;20034;-80
2021/05/16 06:20:06;;;;;;;0.00;0.00;;;14.90;71.60;;;;;;5012527;28;20382;-80
2021/05/16 06:22:32;;;;;;;0.00;0.00;;;14.90;71.60;;;;;;5013260;28;20506;-80
2021/05/16 06:24:58;;;;;;;0.10;0.00;;;14.90;72.30;;;;;;5009670;28;20050;-81
2021/05/16 06:27:24;;;;;;;0.00;0.00;;;15.00;71.50;;;;;;4996198;28;20061;-82
2021/05/16 06:29:50;;;;;;;0.20;0.10;;;15.10;71.40;;;;;;5009992;28;20038;-87
2021/05/16 06:32:17;;;;;;;0.00;0.00;;;15.10;71.30;;;;;;5011305;28;20479;-85
2021/05/16 06:34:43;;;;;;;0.90;0.20;;;15.10;72.10;;;;;;5016362;28;20041;-85
2021/05/16 06:37:09;;;;;;;0.25;0.00;;;15.10;71.20;;;;;;5008337;28;20474;-86
2021/05/16 06:39:35;;;;;;;1.33;0.10;;;15.10;71.20;;;;;;5004495;28;20049;-86
2021/05/16 06:42:01;;;;;;;0.00;0.00;;;15.20;71.20;;;;;;5010216;28;20045;-85
2021/05/16 06:44:27;;;;;;;0.00;0.00;;;15.20;71.10;;;;;;5007962;28;20033;-87
2021/05/16 06:46:53;;;;;;;0.00;0.00;;;15.30;71.00;;;;;;5007960;28;20041;-85
2021/05/16 06:49:19;;;;;;;0.10;0.00;;;15.40;70.90;;;;;;4994913;28;20029;-88
2021/05/16 06:51:46;;;;;;;1.10;0.00;;;15.40;70.80;;;;;;4994811;28;20041;-88
2021/05/16 06:54:12;;;;;;;1.85;0.25;;;15.50;70.80;;;;;;5010367;28;20050;-90
2021/05/16 06:56:39;;;;;;;0.03;0.00;;;15.40;70.80;;;;;;5012315;28;20181;-85
2021/05/16 06:59:05;;;;;;;1.10;0.10;;;15.40;71.00;;;;;;4992343;28;20053;-87
2021/05/16 07:01:32;;;;;;;0.13;0.05;;;15.40;71.00;;;;;;5009156;28;20479;-85
2021/05/16 07:03:58;;;;;;;0.17;0.00;;;15.40;71.00;;;;;;4994270;28;20038;-81
2021/05/16 07:06:25;;;;;;;0.10;0.10;;;15.50;70.90;;;;;;5010033;28;20038;-83
2021/05/16 07:08:51;;;;;;;3.95;0.20;;;15.50;70.90;;;;;;4995997;28;20049;-82
2021/05/16 07:11:17;;;;;;;0.00;0.00;;;15.50;71.00;;;;;;5038885;28;20189;-83
2021/05/16 07:13:44;;;;;;;7.18;0.38;;;15.40;71.10;;;;;;5009035;28;20392;-85
2021/05/16 07:16:10;;;;;;;0.00;0.00;;;15.30;71.20;;;;;;5009661;28;20045;-86
2021/05/16 07:18:36;;;;;;;0.28;0.00;;;15.30;71.50;;;;;;5010723;28;20467;-83
2021/05/16 07:21:02;;;;;;;0.08;0.00;;;15.20;71.60;;;;;;5012746;28;20053;-82
2021/05/16 07:23:28;;;;;;;0.00;0.00;;;15.10;71.70;;;;;;4992336;28;20034;-81
2021/05/16 07:25:54;;;;;;;0.80;0.32;;;15.10;71.90;;;;;;5009263;28;20490;-83
2021/05/16 07:28:20;;;;;;;2.40;0.28;;;15.10;72.00;;;;;;5001851;28;20046;-83
2021/05/16 07:30:46;;;;;;;0.10;0.00;;;15.00;72.10;;;;;;5008899;28;20046;-84
2021/05/16 07:33:12;;;;;;;0.63;0.13;;;15.00;72.20;;;;;;5013359;28;20042;-81
2021/05/16 07:35:39;;;;;;;0.35;0.03;;;14.90;72.40;;;;;;5007300;28;20467;-80
2021/05/16 07:38:05;;;;;;;0.30;0.15;;;14.80;72.60;;;;;;4995214;28;20398;-80
2021/05/16 07:40:31;;;;;;;0.15;0.03;;;14.80;72.70;;;;;;4991860;28;20030;-81
2021/05/16 07:42:57;;;;;;;0.10;0.00;;;14.70;73.00;;;;;;5002586;28;20026;-78
2021/05/16 07:45:23;;;;;;;0.28;0.10;;;14.60;73.10;;;;;;5010900;28;20475;-79
2021/05/16 07:47:49;;;;;;;2.90;0.10;;;14.50;73.20;;;;;;5009490;28;20037;-80
2021/05/16 07:50:16;;;;;;;0.00;0.00;;;14.50;73.30;;;;;;4993641;28;20036;-81
2021/05/16 07:52:42;;;;;;;0.15;0.00;;;14.50;73.20;;;;;;5010018;28;20042;-81
2021/05/16 07:55:08;;;;;;;1.63;0.28;;;14.50;73.20;;;;;;5009745;28;20033;-81
2021/05/16 07:57:35;;;;;;;0.00;0.00;;;14.50;73.10;;;;;;5011656;28;20040;-82
2021/05/16 08:00:01;;;;;;;0.00;0.00;;;14.60;73.10;;;;;;5008592;28;20025;-81
2021/05/16 08:02:27;;;;;;;5.32;0.05;;;14.60;73.00;;;;;;5008556;28;20037;-83
2021/05/16 08:04:53;;;;;;;1.35;0.10;;;14.80;72.90;;;;;;5010423;28;20033;-82
2021/05/16 08:07:20;;;;;;;0.00;0.00;;;15.00;72.70;;;;;;5006738;28;20069;-81
2021/05/16 08:09:46;;;;;;;0.00;0.00;;;15.20;72.30;;;;;;5009537;28;20514;-82
2021/05/16 08:12:12;;;;;;;1.85;0.10;;;15.50;72.00;;;;;;5009788;28;20051;-83
2021/05/16 08:14:38;;;;;;;0.52;0.10;;;15.80;71.50;;;;;;5008559;28;20045;-82
2021/05/16 08:17:04;;;;;;;1.85;0.08;;;16.20;71.10;;;;;;5003055;28;20050;-82
2021/05/16 08:19:30;;;;;;;0.00;0.00;;;16.50;70.70;;;;;;5022211;28;20026;-81
2021/05/16 08:21:56;;;;;;;0.00;0.00;;;16.90;70.20;;;;;;5006591;28;20513;-81
2021/05/16 08:24:23;;;;;;;0.75;0.10;;;17.20;69.70;;;;;;5023372;28;20030;-81
2021/05/16 08:26:49;;;;;;;0.20;0.00;;;17.50;69.40;;;;;;4975439;28;20394;-81
2021/05/16 08:29:15;;;;;;;0.90;0.55;;;17.80;69.10;;;;;;5007333;28;20057;-82
2021/05/16 08:31:41;;;;;;;0.20;0.00;;;18.00;68.70;;;;;;5007749;28;20042;-81
2021/05/16 08:34:07;;;;;;;2.72;0.00;;;18.30;68.50;;;;;;5024226;28;20037;-83
2021/05/16 08:36:34;;;;;;;4.10;0.20;;;18.50;68.30;;;;;;5000338;28;20034;-83
2021/05/16 08:39:00;;;;;;;0.00;0.00;;;18.60;68.10;;;;;;5007206;28;20041;-83
2021/05/16 08:41:26;;;;;;;0.10;0.00;;;18.80;67.90;;;;;;5000489;28;20037;-83
2021/05/16 08:43:52;;;;;;;0.10;0.00;;;18.90;67.70;;;;;;5024744;28;20478;-82
2021/05/16 08:46:18;;;;;;;4.85;0.10;;;19.00;67.70;;;;;;5005612;28;20042;-82
2021/05/16 08:48:44;;;;;;;0.20;0.00;;;19.10;67.60;;;;;;5024773;28;20438;-82
2021/05/16 08:51:11;;;;;;;0.32;0.30;;;19.20;67.60;;;;;;5013086;28;20033;-89
2021/05/16 08:53:37;;;;;;;4.35;0.20;;;19.30;67.40;;;;;;5003481;28;20083;-82
2021/05/16 08:56:05;;;;;;;0.15;0.00;;;19.40;67.30;;;;;;4993040;28;20033;-84
2021/05/16 08:58:31;;;;;;;8.35;0.45;;;19.30;67.20;;;;;;5005470;28;20030;-82
2021/05/16 09:00:57;;;;;;;0.00;0.00;;;19.20;67.50;;;;;;5006289;28;20068;-82
2021/05/16 09:03:24;;;;;;;0.63;0.22;;;19.20;67.60;;;;;;5003618;28;20046;-82
2021/05/16 09:05:52;;;;;;;0.25;0.25;;;19.20;67.60;;;;;;5026180;28;20026;-82
2021/05/16 09:08:25;;;;;;;0.38;0.20;;;19.20;67.50;;;;;;5022366;28;20036;-82
2021/05/16 09:10:59;;;;;;;3.30;0.20;;;19.30;67.20;;;;;;5000923;28;20400;-81
2021/05/16 09:13:29;;;;;;;1.77;0.13;;;19.30;66.90;;;;;;5023136;28;20475;-82
2021/05/16 09:16:02;;;;;;;0.00;0.00;;;19.30;66.90;;;;;;5010535;28;20026;-79
2021/05/16 09:18:34;;;;;;;0.57;0.17;;;19.40;66.80;;;;;;4995281;28;20038;-79
2021/05/16 09:21:29;;;;;;;9.57;0.30;;;19.40;66.60;;;;;;5018311;28;20357;-79
2021/05/16 09:24:05;;;;;;;6.72;0.13;;;19.40;66.30;;;;;;4999146;28;20411;-80
2021/05/16 09:26:35;;;;;;;1.45;0.10;;;19.50;66.00;;;;;;5003837;28;20033;-79
2021/05/16 09:29:33;;;;;;;0.10;0.00;;;19.60;65.90;;;;;;4988739;28;20058;-80
2021/05/16 09:32:00;;;;;;;0.10;0.03;;;19.60;65.50;;;;;;5002477;28;20037;-79
2021/05/16 09:34:27;;;;;;;6.60;0.30;;;19.40;65.40;;;;;;5007447;28;20030;-79
2021/05/16 09:36:53;;;;;;;3.60;0.00;;;19.20;65.50;;;;;;5010648;28;20030;-80
2021/05/16 09:39:24;;;;;;;1.70;0.20;;;19.20;65.80;;;;;;5006679;28;20033;-80
2021/05/16 09:42:00;;;;;;;0.00;0.00;;;19.20;65.50;;;;;;5005561;28;20026;-79
2021/05/16 09:44:33;;;;;;;2.75;0.17;;;19.50;65.10;;;;;;5007350;28;20030;-81
2021/05/16 09:47:09;;;;;;;0.13;0.10;;;19.70;64.40;;;;;;4992477;28;20029;-82
2021/05/16 09:49:35;;;;;;;4.28;0.10;;;19.90;63.90;;;;;;5010925;28;20026;-83
2021/05/16 09:52:12;;;;;;;0.75;0.00;;;20.00;63.40;;;;;;4994785;28;20045;-83
2021/05/16 09:55:08;;;;;;;0.00;0.00;;;20.00;63.10;;;;;;5012647;28;20502;-82
2021/05/16 09:57:46;;;;;;;0.00;0.00;;;20.10;63.20;;;;;;5036886;28;20037;-78
2021/05/16 10:00:16;;;;;;;1.17;0.10;;;20.20;62.90;;;;;;5011191;28;20025;-81
2021/05/16 10:02:42;;;;;;;0.23;0.03;;;20.30;62.30;;;;;;5011458;28;20395;-80
2021/05/16 10:05:10;;;;;;;3.67;0.13;;;20.30;62.10;;;;;;5013255;28;20627;-81
2021/05/16 10:07:40;;;;;;;1.15;0.57;;;20.10;62.20;;;;;;5010347;28;20423;-82
2021/05/16 10:10:07;;;;;;;0.20;0.00;;;19.90;62.30;;;;;;5011768;28;20033;-80
2021/05/16 10:12:35;;;;;;;4.90;0.55;;;19.90;62.40;;;;;;5012150;28;20502;-83
2021/05/16 10:15:16;;;;;;;0.00;0.00;;;20.00;62.30;;;;;;5023882;28;20093;-81
2021/05/16 10:17:43;;;;;;;;;;;20.10;61.70;;;;;;5022634;28;20030;-82
2021/05/16 10:20:16;;;;;;;0.00;0.00;;;20.20;61.30;;;;;;5033524;28;19917;-83
2021/05/16 10:22:54;;;;;;;4.57;0.15;;;20.20;61.20;;;;;;4993726;28;20107;-79
2021/05/16 10:25:42;;;;;;;1.35;0.08;;;20.10;61.10;;;;;;5003834;28;20390;-83
2021/05/16 10:28:14;;;;;;;0.22;0.10;;;20.10;60.70;;;;;;5010971;28;20037;-80
2021/05/16 10:30:43;;;;;;;3.20;0.17;;;20.20;60.60;;;;;;5011993;28;20038;-80
2021/05/16 10:33:32;;;;;;;0.38;0.10;;;20.20;60.40;;;;;;5012965;28;20044;-79
2021/05/16 10:35:58;;;;;;;9.95;0.10;;;20.40;60.10;;;;;;5010447;28;20487;-79
2021/05/16 10:38:38;;;;;;;0.00;0.00;;;20.50;59.90;;;;;;4992673;28;20042;-79
2021/05/16 10:41:14;;;;;;;1.38;0.10;;;20.70;59.60;;;;;;5011871;28;20489;-80
2021/05/16 10:43:40;;;;;;;0.80;0.10;;;20.80;59.30;;;;;;5009363;28;20471;-79
2021/05/16 10:46:38;;;;;;;0.52;0.03;;;21.00;59.00;;;;;;4999026;28;20026;-79
2021/05/16 10:49:26;;;;;;;6.47;0.40;;;21.00;58.70;;;;;;4996008;28;20057;-79
2021/05/16 10:51:52;;;;;;;0.00;0.00;;;21.10;58.60;;;;;;5012031;28;20037;-79
2021/05/16 10:54:32;;;;;;;0.00;0.00;;;21.00;58.30;;;;;;5008663;28;20410;-78
2021/05/16 10:57:15;;;;;;;0.00;0.00;;;21.10;58.30;;;;;;5023530;28;20495;-79
2021/05/16 10:59:42;;;;;;;0.00;0.00;;;20.90;58.20;;;;;;4998141;28;20062;-81
2021/05/16 11:02:08;;;;;;;0.47;0.20;;;20.90;58.20;;;;;;5028598;28;20041;-81
2021/05/16 11:04:47;;;;;;;0.00;0.00;;;20.90;58.10;;;;;;5005708;28;20042;-80
2021/05/16 11:07:32;;;;;;;2.08;0.10;;;21.00;57.90;;;;;;5010955;28;20030;-82
2021/05/16 11:10:25;;;;;;;0.10;0.10;;;21.20;57.50;;;;;;5008536;28;20052;-81
2021/05/16 11:12:51;;;;;;;1.60;0.30;;;21.30;57.40;;;;;;5011961;28;20034;-81
2021/05/16 11:15:23;;;;;;;8.05;0.43;;;21.20;57.30;;;;;;5003508;28;20034;-81
2021/05/16 11:17:50;;;;;;;0.00;0.00;;;21.20;57.40;;;;;;5010097;28;20044;-81
2021/05/16 11:20:18;;;;;;;0.10;0.00;;;21.00;57.40;;;;;;4991989;28;20038;-81
2021/05/16 11:22:44;;;;;;;0.20;0.00;;;20.80;57.50;;;;;;5013385;28;20022;-80
2021/05/16 11:25:10;;;;;;;6.22;0.20;;;20.70;57.80;;;;;;5029857;28;20094;-83
2021/05/16 11:27:36;;;;;;;4.90;0.13;;;20.70;57.80;;;;;;5030917;28;20045;-81
2021/05/16 11:30:10;;;;;;;0.22;0.20;;;20.80;57.60;;;;;;5012179;28;20042;-80
2021/05/16 11:32:37;;;;;;;4.55;0.00;;;20.90;57.20;;;;;;5008962;28;20022;-82
2021/05/16 11:35:03;;;;;;;0.00;0.00;;;21.10;56.90;;;;;;5008193;28;20387;-82
2021/05/16 11:37:30;;;;;;;0.00;0.00;;;21.10;56.70;;;;;;5011358;28;20502;-82
2021/05/16 11:40:14;;;;;;;0.05;0.00;;;21.10;56.70;;;;;;5010149;28;20046;-81
2021/05/16 11:42:42;;;;;;;0.00;0.00;;;21.10;56.50;;;;;;5011291;28;20414;-83
2021/05/16 11:45:09;;;;;;;0.00;0.00;;;21.10;56.40;;;;;;5011194;28;20494;-82
2021/05/16 11:47:36;;;;;;;0.00;0.00;;;21.00;56.20;;;;;;5010415;28;20511;-83
2021/05/16 11:50:07;;;;;;;0.00;0.00;;;21.00;56.20;;;;;;5011291;28;20033;-83
2021/05/16 11:52:33;;;;;;;1.27;0.00;;;20.90;56.10;;;;;;5027619;28;20030;-84
2021/05/16 11:55:03;;;;;;;0.00;0.00;;;20.80;56.00;;;;;;5009530;28;20418;-83
2021/05/16 11:57:30;;;;;;;0.43;0.00;;;20.70;56.00;;;;;;5010250;28;20038;-83
2021/05/16 11:59:56;;;;;;;10.43;0.30;;;20.50;56.10;;;;;;5022108;28;20289;-83
2021/05/16 12:02:22;;;;;;;5.40;0.43;;;20.30;56.30;;;;;;5008420;28;20041;-83
2021/05/16 12:04:48;;;;;;;0.00;0.00;;;20.10;56.50;;;;;;4991527;28;20038;-83
2021/05/16 12:07:15;;;;;;;3.85;0.43;;;19.90;56.60;;;;;;5010017;28;20026;-83
2021/05/16 12:09:43;;;;;;;0.38;0.00;;;19.70;56.70;;;;;;5008838;28;20033;-82
2021/05/16 12:12:17;;;;;;;1.10;0.20;;;19.60;57.40;;;;;;5032620;28;20033;-83
2021/05/16 12:14:44;;;;;;;0.00;0.00;;;19.50;57.50;;;;;;5009651;28;20398;-83
2021/05/16 12:17:10;;;;;;;1.92;0.08;;;19.40;57.10;;;;;;5007507;28;20034;-85
2021/05/16 12:19:37;;;;;;;2.22;0.00;;;19.20;57.40;;;;;;5008977;28;20026;-83
2021/05/16 12:22:05;;;;;;;0.15;0.10;;;19.10;57.80;;;;;;5010040;28;20029;-83
2021/05/16 12:24:32;;;;;;;0.00;0.00;;;18.90;58.10;;;;;;4994589;28;20030;-83
2021/05/16 12:26:58;;;;;;;0.13;0.00;;;18.90;58.40;;;;;;5016298;28;20057;-83
2021/05/16 12:29:25;;;;;;;0.00;0.00;;;18.90;58.50;;;;;;5005373;28;20033;-82
2021/05/16 12:31:51;;;;;;;6.60;0.05;;;18.90;58.40;;;;;;4990957;28;20034;-83
2021/05/16 12:34:21;;;;;;;0.00;0.00;;;19.10;58.30;;;;;;5008821;28;20029;-81
2021/05/16 12:36:48;;;;;;;0.65;0.20;;;19.30;58.10;;;;;;5009640;28;20030;-82
2021/05/16 12:39:35;;;;;;;8.90;0.55;;;19.40;57.80;;;;;;5012029;28;20037;-82
2021/05/16 12:42:01;;;;;;;0.10;0.00;;;19.50;57.50;;;;;;5011332;28;20044;-81
2021/05/16 12:44:27;;;;;;;2.05;0.08;;;19.70;57.30;;;;;;5005946;28;20029;-80
2021/05/16 12:46:54;;;;;;;6.43;0.13;;;19.80;57.00;;;;;;5009197;28;20391;-81
2021/05/16 12:49:25;;;;;;;0.00;0.00;;;19.90;56.90;;;;;;5009984;28;20486;-82
2021/05/16 12:51:58;;;;;;;2.63;0.20;;;20.10;57.20;;;;;;5010240;28;20026;-81